Time;durP1;ratioP1;P1;durP2;ratioP2;P2;SDS_P1;SDS_P2;PMS_P1;PMS_P2;Temp;Humidity;BMP_temperature;BMP_pressure;BME280_temperature;BME280_humidity;BME280_pressure;Samples;Min_cycle;Max_cycle;Signal;HPM_P1;HPM_P2
2022/01/04 00:00:28;;;;;;;16.58;5.15;;;8.90;99.90;;;;;;5038466;28;20072;-78
2022/01/04 00:02:54;;;;;;;14.82;5.38;;;9.00;99.90;;;;;;5020604;28;20152;-78
2022/01/04 00:05:20;;;;;;;12.00;5.40;;;9.00;99.90;;;;;;5037829;28;20075;-78
2022/01/04 00:07:46;;;;;;;21.63;5.60;;;8.90;99.90;;;;;;5038979;28;20777;-78
2022/01/04 00:10:11;;;;;;;10.40;5.22;;;9.00;99.90;;;;;;5038792;28;20041;-78
2022/01/04 00:15:22;;;;;;;12.90;4.60;;;8.90;99.90;;;;;;5020407;28;20920;-77
2022/01/04 00:17:47;;;;;;;16.08;6.53;;;9.00;99.90;;;;;;5039410;28;20147;-78
2022/01/04 00:20:13;;;;;;;9.07;4.68;;;9.00;99.90;;;;;;5021373;28;20049;-78
2022/01/04 00:22:39;;;;;;;12.02;5.15;;;9.00;99.90;;;;;;5039397;28;20765;-77
2022/01/04 00:25:05;;;;;;;13.00;5.07;;;9.00;99.90;;;;;;5021912;28;20079;-78
2022/01/04 00:27:31;;;;;;;14.57;5.68;;;9.00;99.90;;;;;;5021383;28;20489;-78
2022/01/04 00:29:57;;;;;;;14.43;5.55;;;9.00;99.90;;;;;;5021285;28;20055;-78
2022/01/04 00:32:22;;;;;;;9.68;4.65;;;9.00;99.90;;;;;;5038478;28;20044;-78
2022/01/04 00:34:48;;;;;;;7.22;4.32;;;9.00;99.90;;;;;;5020194;28;20045;-78
2022/01/04 00:37:13;;;;;;;16.88;4.75;;;9.00;99.90;;;;;;5038752;28;20891;-77
2022/01/04 00:39:39;;;;;;;13.38;4.45;;;9.00;99.90;;;;;;5038958;28;20045;-78
2022/01/04 00:42:05;;;;;;;10.02;4.13;;;9.00;99.90;;;;;;5038495;28;20063;-78
2022/01/04 00:44:31;;;;;;;10.57;4.35;;;9.00;99.90;;;;;;5039071;28;20056;-78
2022/01/04 00:46:59;;;;;;;10.48;5.75;;;8.90;99.90;;;;;;5038371;28;20053;-78
2022/01/04 00:49:24;;;;;;;13.10;5.60;;;8.90;99.90;;;;;;5038548;28;20059;-78
2022/01/04 00:51:53;;;;;;;9.00;4.63;;;8.90;99.90;;;;;;5038702;28;20829;-78
2022/01/04 00:54:20;;;;;;;11.27;4.68;;;8.90;99.90;;;;;;5020443;28;20547;-78
2022/01/04 00:56:46;;;;;;;14.02;4.68;;;8.80;99.90;;;;;;5039511;28;20133;-78
2022/01/04 00:59:12;;;;;;;16.23;4.53;;;8.90;99.90;;;;;;5039061;28;20048;-78
2022/01/04 01:01:38;;;;;;;9.65;5.50;;;8.90;99.90;;;;;;5017126;28;20049;-78
2022/01/04 01:04:06;;;;;;;13.85;4.18;;;8.90;99.90;;;;;;5019876;28;20055;-78
2022/01/04 01:06:32;;;;;;;13.23;4.93;;;8.90;99.90;;;;;;5019502;28;20056;-78
2022/01/04 01:08:57;;;;;;;15.38;5.63;;;8.90;99.90;;;;;;5019426;28;20755;-78
2022/01/04 01:11:23;;;;;;;15.02;5.47;;;8.90;99.90;;;;;;5018962;28;20072;-78
2022/01/04 01:13:49;;;;;;;13.85;5.40;;;8.80;99.90;;;;;;5038440;28;20765;-78
2022/01/04 01:16:15;;;;;;;12.27;4.85;;;8.80;99.90;;;;;;5019327;28;20118;-78
2022/01/04 01:18:40;;;;;;;15.25;5.95;;;8.80;99.90;;;;;;5037867;28;20041;-78
2022/01/04 01:21:07;;;;;;;10.40;5.55;;;8.80;99.90;;;;;;5019929;28;20053;-78
2022/01/04 01:23:35;;;;;;;11.38;6.38;;;8.80;99.90;;;;;;5037764;28;20066;-78
2022/01/04 01:26:03;;;;;;;17.38;7.20;;;8.80;99.90;;;;;;5021121;28;20059;-78
2022/01/04 01:28:29;;;;;;;15.88;5.30;;;8.80;99.90;;;;;;5021561;28;20370;-79
2022/01/04 01:30:54;;;;;;;17.23;5.40;;;8.80;99.90;;;;;;5021542;28;20058;-79
2022/01/04 01:33:20;;;;;;;12.65;5.75;;;8.80;99.90;;;;;;5039917;28;20515;-78
2022/01/04 01:35:46;;;;;;;10.98;6.25;;;8.80;99.90;;;;;;5022041;28;20068;-78
2022/01/04 01:38:14;;;;;;;11.85;5.30;;;8.80;99.90;;;;;;5039052;28;20040;-78
2022/01/04 01:40:40;;;;;;;13.63;6.00;;;8.80;99.90;;;;;;5039694;28;20072;-78
2022/01/04 01:43:07;;;;;;;7.50;4.75;;;8.90;99.90;;;;;;5019207;28;20061;-78
2022/01/04 01:45:34;;;;;;;13.13;4.85;;;8.90;99.90;;;;;;5020824;28;20140;-77
2022/01/04 01:48:00;;;;;;;10.15;5.25;;;8.90;99.90;;;;;;5037276;28;20052;-78
2022/01/04 01:50:26;;;;;;;15.50;5.60;;;8.90;99.90;;;;;;5020121;28;20049;-78
2022/01/04 01:52:52;;;;;;;17.30;5.93;;;8.90;99.90;;;;;;5020347;28;20048;-78
2022/01/04 01:55:21;;;;;;;20.38;7.25;;;8.90;99.90;;;;;;5038993;28;20076;-78
2022/01/04 01:57:48;;;;;;;11.20;5.43;;;8.90;99.90;;;;;;5019880;28;20095;-79
2022/01/04 02:00:15;;;;;;;14.75;6.20;;;8.90;99.90;;;;;;5019181;28;20139;-78
2022/01/04 02:02:41;;;;;;;11.18;5.40;;;8.90;99.90;;;;;;5018124;28;20049;-78
2022/01/04 02:05:08;;;;;;;14.30;6.15;;;8.90;99.90;;;;;;5036593;28;20048;-78
2022/01/04 02:07:34;;;;;;;14.32;5.93;;;8.90;99.90;;;;;;5019210;28;20049;-78
2022/01/04 02:10:04;;;;;;;13.18;5.30;;;8.90;99.90;;;;;;5018987;28;20150;-78
2022/01/04 02:12:37;;;;;;;10.70;5.68;;;8.90;99.90;;;;;;5036436;28;20121;-77
2022/01/04 02:15:05;;;;;;;14.20;7.43;;;8.80;99.90;;;;;;5038485;28;20056;-78
2022/01/04 02:17:31;;;;;;;11.68;5.70;;;8.80;99.90;;;;;;5038021;28;20063;-78
2022/01/04 02:19:58;;;;;;;12.93;5.22;;;8.80;99.90;;;;;;5020122;28;20056;-78
2022/01/04 02:22:25;;;;;;;13.10;4.85;;;8.80;99.90;;;;;;5020396;28;20045;-78
2022/01/04 02:24:51;;;;;;;11.25;5.18;;;8.80;99.90;;;;;;5020543;28;20052;-78
2022/01/04 02:27:17;;;;;;;18.33;5.70;;;8.80;99.90;;;;;;5019947;28;20425;-78
2022/01/04 02:29:44;;;;;;;12.07;6.60;;;8.80;99.90;;;;;;5020507;28;20048;-79
2022/01/04 02:32:09;;;;;;;11.35;5.47;;;8.90;99.90;;;;;;5019815;28;20045;-79
2022/01/04 02:34:35;;;;;;;21.10;6.13;;;8.90;99.90;;;;;;5019804;28;20076;-79
2022/01/04 02:37:00;;;;;;;9.43;6.70;;;8.90;99.90;;;;;;5020521;28;20060;-79
2022/01/04 02:39:27;;;;;;;15.85;7.32;;;8.80;99.90;;;;;;5020600;28;20057;-79
2022/01/04 02:41:52;;;;;;;10.40;6.05;;;8.80;99.90;;;;;;5019968;28;20057;-78
2022/01/04 02:44:18;;;;;;;14.68;5.95;;;8.80;99.90;;;;;;5038714;28;20404;-79
2022/01/04 02:46:44;;;;;;;11.35;6.03;;;8.80;99.90;;;;;;5019627;28;20040;-78
2022/01/04 02:49:09;;;;;;;10.48;5.43;;;8.90;99.90;;;;;;5020492;28;20825;-79
2022/01/04 02:51:35;;;;;;;18.75;6.57;;;8.10;99.90;;;;;;5020056;28;20141;-78
2022/01/04 02:54:00;;;;;;;11.10;5.00;;;8.90;99.90;;;;;;5038746;28;20052;-78
2022/01/04 02:56:26;;;;;;;13.40;5.75;;;8.90;99.90;;;;;;5024557;28;20091;-78
2022/01/04 02:58:52;;;;;;;16.00;6.03;;;8.90;99.90;;;;;;5042591;28;20060;-78
2022/01/04 03:01:18;;;;;;;11.95;5.80;;;8.90;99.90;;;;;;5023602;28;20187;-78
2022/01/04 03:03:43;;;;;;;14.05;6.82;;;8.90;99.90;;;;;;5042204;28;20492;-78
2022/01/04 03:06:14;;;;;;;12.93;6.55;;;8.90;99.90;;;;;;5022929;28;20076;-78
2022/01/04 03:08:39;;;;;;;13.90;6.00;;;8.90;99.90;;;;;;5023518;28;20837;-78
2022/01/04 03:11:05;;;;;;;11.32;6.18;;;8.90;99.90;;;;;;5042391;28;20122;-79
2022/01/04 03:13:31;;;;;;;11.07;6.10;;;8.90;99.90;;;;;;5024190;28;20055;-79
2022/01/04 03:15:56;;;;;;;18.30;7.60;;;8.90;99.90;;;;;;5041092;28;20099;-79
2022/01/04 03:18:22;;;;;;;15.15;6.97;;;8.80;99.90;;;;;;5022532;28;20040;-78
2022/01/04 03:20:47;;;;;;;12.50;6.15;;;8.80;99.90;;;;;;5022357;28;20048;-78
2022/01/04 03:23:13;;;;;;;18.85;6.65;;;8.80;99.90;;;;;;5023166;28;20061;-78
2022/01/04 03:25:40;;;;;;;17.00;8.98;;;8.80;99.90;;;;;;5042222;28;20043;-78
2022/01/04 03:28:06;;;;;;;18.17;6.60;;;8.70;99.90;;;;;;5020341;28;20060;-78
2022/01/04 03:30:33;;;;;;;14.85;7.20;;;8.80;99.90;;;;;;5022391;28;20056;-78
2022/01/04 03:32:59;;;;;;;15.75;5.80;;;8.70;99.90;;;;;;5023173;28;20057;-78
2022/01/04 03:35:25;;;;;;;23.00;7.63;;;8.70;99.90;;;;;;5041017;28;20491;-79
2022/01/04 03:37:51;;;;;;;12.35;6.38;;;8.80;99.90;;;;;;5022460;28;20052;-78
2022/01/04 03:40:16;;;;;;;12.77;8.07;;;8.70;99.90;;;;;;5023382;28;20060;-77
2022/01/04 03:42:42;;;;;;;21.80;6.47;;;8.70;99.90;;;;;;5041746;28;20862;-78
2022/01/04 03:45:08;;;;;;;14.18;6.45;;;8.70;99.90;;;;;;5041163;28;20076;-78
2022/01/04 03:47:34;;;;;;;14.57;6.30;;;8.70;99.90;;;;;;5041781;28;20753;-78
2022/01/04 03:49:59;;;;;;;18.73;8.35;;;8.70;99.90;;;;;;5022815;28;20049;-78
2022/01/04 03:52:25;;;;;;;21.25;8.50;;;8.80;99.90;;;;;;5023377;28;20057;-78
2022/01/04 03:54:51;;;;;;;22.23;7.43;;;8.80;99.90;;;;;;5041781;28;20068;-78
2022/01/04 03:57:16;;;;;;;21.77;6.97;;;8.80;99.90;;;;;;5041608;28;20049;-79
2022/01/04 03:59:42;;;;;;;16.58;6.93;;;8.80;99.90;;;;;;5041165;28;20049;-78
2022/01/04 04:02:08;;;;;;;14.85;6.55;;;8.90;99.90;;;;;;5041008;28;20083;-78
2022/01/04 04:04:33;;;;;;;22.52;7.93;;;8.90;99.90;;;;;;5022445;28;20056;-79
2022/01/04 04:06:59;;;;;;;18.90;6.43;;;8.90;99.90;;;;;;5039989;28;20110;-78
2022/01/04 04:09:24;;;;;;;16.67;7.70;;;8.90;99.90;;;;;;5023653;28;20051;-78
2022/01/04 04:11:50;;;;;;;14.38;6.72;;;8.90;99.90;;;;;;5022356;28;20087;-78
2022/01/04 04:14:16;;;;;;;12.50;7.45;;;8.90;99.90;;;;;;5041080;28;20045;-78
2022/01/04 04:16:41;;;;;;;13.70;7.88;;;8.90;99.90;;;;;;5022553;28;20117;-78
2022/01/04 04:19:07;;;;;;;17.05;7.32;;;9.00;99.90;;;;;;5039910;28;20122;-78
2022/01/04 04:21:32;;;;;;;14.82;7.15;;;8.90;99.90;;;;;;5016316;28;20057;-78
2022/01/04 04:23:58;;;;;;;12.15;8.43;;;9.00;99.90;;;;;;5040811;28;20076;-78
2022/01/04 04:26:23;;;;;;;14.43;7.95;;;8.90;99.90;;;;;;5022452;28;20053;-78
2022/01/04 04:28:49;;;;;;;20.40;8.30;;;9.00;99.90;;;;;;5022740;28;20045;-78
2022/01/04 04:31:15;;;;;;;16.13;9.02;;;9.00;99.90;;;;;;5040585;28;20045;-78
2022/01/04 04:33:40;;;;;;;18.55;7.30;;;9.00;99.90;;;;;;5040017;28;20044;-78
2022/01/04 04:36:08;;;;;;;17.60;7.82;;;9.00;99.90;;;;;;5022290;28;20041;-78
2022/01/04 04:38:33;;;;;;;15.82;8.30;;;9.00;99.90;;;;;;5040703;28;20136;-78
2022/01/04 04:40:59;;;;;;;19.42;7.20;;;9.00;99.90;;;;;;5022123;28;20114;-78
2022/01/04 04:43:25;;;;;;;13.50;7.30;;;9.00;99.90;;;;;;5022905;28;20591;-78
2022/01/04 04:45:52;;;;;;;16.35;7.55;;;9.00;99.90;;;;;;5023034;28;20044;-78
2022/01/04 04:48:17;;;;;;;20.45;7.93;;;9.00;99.90;;;;;;5040323;28;20041;-78
2022/01/04 04:50:43;;;;;;;13.73;8.38;;;9.00;99.90;;;;;;5040561;28;20045;-78
2022/01/04 04:53:08;;;;;;;23.02;9.75;;;9.00;99.90;;;;;;5039997;28;20425;-79
2022/01/04 04:55:34;;;;;;;16.77;9.23;;;9.00;99.90;;;;;;5040584;28;20594;-78
2022/01/04 04:58:00;;;;;;;12.48;8.48;;;9.10;99.90;;;;;;5022481;28;20900;-78
2022/01/04 05:00:25;;;;;;;17.65;8.98;;;9.10;99.90;;;;;;5021405;28;20056;-78
2022/01/04 05:02:51;;;;;;;16.33;7.85;;;9.10;99.90;;;;;;5021465;28;20045;-78
2022/01/04 05:05:16;;;;;;;20.85;8.45;;;9.00;99.90;;;;;;5039643;28;20053;-78
2022/01/04 05:07:42;;;;;;;15.07;8.48;;;9.10;99.90;;;;;;5038685;28;20040;-78
2022/01/04 05:10:08;;;;;;;23.63;7.28;;;9.10;99.90;;;;;;5021748;28;20095;-78
2022/01/04 05:12:34;;;;;;;21.85;8.57;;;9.00;99.90;;;;;;5039709;28;20346;-78
2022/01/04 05:15:00;;;;;;;17.88;9.00;;;9.00;99.90;;;;;;5021038;28;20029;-78
2022/01/04 05:17:25;;;;;;;16.65;7.70;;;9.00;99.90;;;;;;5039145;28;20049;-78
2022/01/04 05:19:51;;;;;;;17.35;8.88;;;9.00;99.90;;;;;;5020869;28;20438;-78
2022/01/04 05:22:16;;;;;;;19.73;8.77;;;9.00;99.90;;;;;;5038560;28;20059;-78
2022/01/04 05:24:42;;;;;;;18.00;7.72;;;9.00;99.90;;;;;;5020878;28;20053;-78
2022/01/04 05:27:08;;;;;;;29.63;8.98;;;9.00;99.90;;;;;;5038549;28;20749;-78
2022/01/04 05:29:33;;;;;;;16.67;8.63;;;9.00;99.90;;;;;;5020362;28;20768;-78
2022/01/04 05:31:59;;;;;;;20.08;8.52;;;9.00;99.90;;;;;;5020845;28;20049;-78
2022/01/04 05:34:25;;;;;;;18.98;8.80;;;9.00;99.90;;;;;;5020561;28;20045;-78
2022/01/04 05:36:51;;;;;;;15.30;8.07;;;9.00;99.90;;;;;;5019782;28;20075;-78
2022/01/04 05:39:17;;;;;;;16.20;8.20;;;9.00;99.90;;;;;;5020460;28;20053;-78
2022/01/04 05:41:43;;;;;;;16.35;7.82;;;9.00;99.90;;;;;;5038386;28;20575;-77
2022/01/04 05:44:09;;;;;;;13.90;7.65;;;9.00;99.90;;;;;;5039155;28;20052;-77
2022/01/04 05:46:35;;;;;;;17.70;8.90;;;9.00;99.90;;;;;;5021456;28;20132;-78
2022/01/04 05:49:00;;;;;;;16.80;9.82;;;9.00;99.90;;;;;;5020725;28;20842;-78
2022/01/04 05:51:26;;;;;;;20.45;7.68;;;9.00;99.90;;;;;;5020291;28;20049;-78
2022/01/04 05:53:51;;;;;;;19.73;8.02;;;9.00;99.90;;;;;;5020985;28;20837;-78
2022/01/04 05:56:17;;;;;;;11.65;7.78;;;8.90;99.90;;;;;;5039393;28;20704;-78
2022/01/04 05:58:43;;;;;;;17.95;8.48;;;8.90;99.90;;;;;;5020501;28;20118;-78
2022/01/04 06:01:08;;;;;;;17.65;7.72;;;8.90;99.90;;;;;;5036834;28;20508;-78
2022/01/04 06:03:34;;;;;;;19.30;8.15;;;8.90;99.90;;;;;;5037900;28;20921;-78
2022/01/04 06:05:59;;;;;;;12.50;7.03;;;8.90;99.90;;;;;;5019875;28;20044;-78
2022/01/04 06:08:31;;;;;;;21.83;8.88;;;8.80;99.90;;;;;;5020400;28;20771;-78
2022/01/04 06:10:56;;;;;;;12.90;8.02;;;8.90;99.90;;;;;;5019746;28;20087;-78
2022/01/04 06:16:06;;;;;;;17.48;8.05;;;8.90;99.90;;;;;;5020118;28;20061;-78
2022/01/04 06:18:32;;;;;;;15.30;8.40;;;8.90;99.90;;;;;;5038012;28;20048;-78
2022/01/04 06:20:57;;;;;;;17.23;8.50;;;8.80;99.90;;;;;;5038245;28;20044;-79
2022/01/04 06:23:23;;;;;;;15.05;8.02;;;8.80;99.90;;;;;;5038360;28;20044;-78
2022/01/04 06:25:52;;;;;;;16.00;7.90;;;8.80;99.90;;;;;;5020206;28;20156;-79
2022/01/04 06:28:18;;;;;;;15.93;8.60;;;8.80;99.90;;;;;;5020428;28;20191;-78
2022/01/04 06:30:44;;;;;;;20.30;8.45;;;8.90;99.90;;;;;;5036172;28;20065;-78
2022/01/04 06:33:10;;;;;;;20.73;8.80;;;8.80;99.90;;;;;;5037764;28;20079;-78
2022/01/04 06:35:37;;;;;;;19.58;8.88;;;8.80;99.90;;;;;;5038111;28;20096;-78
2022/01/04 06:38:04;;;;;;;22.13;8.05;;;8.80;99.90;;;;;;5037629;28;20054;-78
2022/01/04 06:40:29;;;;;;;17.40;8.70;;;8.90;99.90;;;;;;5019640;28;20078;-78
2022/01/04 06:42:55;;;;;;;17.02;8.35;;;8.90;99.90;;;;;;5020587;28;20797;-78
2022/01/04 06:45:21;;;;;;;19.88;9.50;;;8.80;99.90;;;;;;5019778;28;20061;-78
2022/01/04 06:47:46;;;;;;;17.25;8.82;;;8.80;99.90;;;;;;5037489;28;20407;-78
2022/01/04 06:50:15;;;;;;;17.13;9.20;;;8.90;99.90;;;;;;5019748;28;20056;-78
2022/01/04 06:52:40;;;;;;;21.45;9.77;;;8.90;99.90;;;;;;5031036;28;20044;-78
2022/01/04 06:55:06;;;;;;;27.27;8.68;;;8.90;99.90;;;;;;5020056;28;20049;-78
2022/01/04 06:57:32;;;;;;;15.18;8.43;;;8.90;99.90;;;;;;5020257;28;20136;-78
2022/01/04 06:59:57;;;;;;;19.27;8.65;;;8.90;99.90;;;;;;5019381;28;20050;-78
2022/01/04 07:02:23;;;;;;;18.85;9.25;;;8.90;99.90;;;;;;5019905;28;20459;-78
2022/01/04 07:04:49;;;;;;;15.77;8.63;;;8.90;99.90;;;;;;5019987;28;20131;-78
2022/01/04 07:07:14;;;;;;;17.90;9.52;;;8.90;99.90;;;;;;5019067;28;20060;-77
2022/01/04 07:09:41;;;;;;;21.52;9.88;;;8.90;99.90;;;;;;5019942;28;20094;-78
2022/01/04 07:12:08;;;;;;;18.25;9.95;;;8.90;99.90;;;;;;5020473;28;20190;-86
2022/01/04 07:14:33;;;;;;;16.00;9.43;;;8.90;99.90;;;;;;5019371;28;20045;-84
2022/01/04 07:16:59;;;;;;;19.08;8.18;;;8.90;99.90;;;;;;5037246;28;20073;-81
2022/01/04 07:19:25;;;;;;;17.35;7.65;;;8.80;99.90;;;;;;5019315;28;20760;-80
2022/01/04 07:21:50;;;;;;;12.52;7.70;;;8.80;99.90;;;;;;5019311;28;20179;-82
2022/01/04 07:24:16;;;;;;;14.27;7.15;;;8.80;99.90;;;;;;5020569;28;20488;-82
2022/01/04 07:26:41;;;;;;;12.85;7.65;;;8.50;99.90;;;;;;5021550;28;20477;-83
2022/01/04 07:29:08;;;;;;;15.10;7.47;;;8.80;99.90;;;;;;5038042;28;20128;-83
2022/01/04 07:31:33;;;;;;;25.25;8.07;;;8.80;99.90;;;;;;5019603;28;20057;-84
2022/01/04 07:33:59;;;;;;;9.23;6.32;;;8.80;99.90;;;;;;5036125;28;20049;-82
2022/01/04 07:36:27;;;;;;;18.85;7.45;;;8.70;99.90;;;;;;5014854;28;20045;-81
2022/01/04 07:38:53;;;;;;;14.48;7.43;;;8.70;99.90;;;;;;5012807;28;20579;-80
2022/01/04 07:41:18;;;;;;;17.13;7.15;;;8.70;99.90;;;;;;5016597;28;20175;-81
2022/01/04 07:43:44;;;;;;;16.48;7.18;;;8.70;99.90;;;;;;5019368;28;20088;-82
2022/01/04 07:46:09;;;;;;;17.55;7.57;;;8.70;99.90;;;;;;5039069;28;20434;-81
2022/01/04 07:48:35;;;;;;;13.23;8.07;;;8.70;99.90;;;;;;5039995;28;20049;-82
2022/01/04 07:51:01;;;;;;;12.95;7.35;;;8.60;99.90;;;;;;5020834;28;20185;-81
2022/01/04 07:53:26;;;;;;;13.73;7.43;;;8.60;99.90;;;;;;5015251;28;20133;-81
2022/01/04 07:55:52;;;;;;;12.57;7.57;;;8.70;99.90;;;;;;5038353;28;20391;-81
2022/01/04 07:58:18;;;;;;;11.85;7.60;;;8.70;99.90;;;;;;5037578;28;20045;-81
2022/01/04 08:00:43;;;;;;;26.08;8.57;;;8.70;99.90;;;;;;5037936;28;20049;-80
2022/01/04 08:03:10;;;;;;;13.85;8.73;;;8.60;99.90;;;;;;5037584;28;20747;-80
2022/01/04 08:05:36;;;;;;;13.48;8.00;;;8.60;99.90;;;;;;5017997;28;20886;-79
2022/01/04 08:08:02;;;;;;;15.90;8.00;;;8.70;99.90;;;;;;5016261;28;20041;-83
2022/01/04 08:10:28;;;;;;;13.52;8.70;;;8.60;99.90;;;;;;5019853;28;20095;-79
2022/01/04 08:12:53;;;;;;;14.05;9.00;;;9.00;99.90;;;;;;5020363;28;20053;-81
2022/01/04 08:15:19;;;;;;;15.45;7.65;;;8.70;99.90;;;;;;5038125;28;20080;-77
2022/01/04 08:17:45;;;;;;;18.70;9.68;;;8.70;99.90;;;;;;5038518;28;20510;-89
2022/01/04 08:20:11;;;;;;;16.77;9.18;;;8.70;99.90;;;;;;5019445;28;20044;-81
2022/01/04 08:22:36;;;;;;;14.75;7.50;;;8.70;99.90;;;;;;5017664;28;20060;-87
2022/01/04 08:25:07;;;;;;;8.98;5.07;;;8.60;99.90;;;;;;5029311;28;20052;-88
2022/01/04 08:27:33;;;;;;;9.38;5.55;;;8.60;99.90;;;;;;5035367;28;20053;-88
2022/01/04 08:29:59;;;;;;;5.10;3.05;;;8.50;99.90;;;;;;5037443;28;20075;-86
2022/01/04 08:32:25;;;;;;;9.27;3.15;;;8.40;99.90;;;;;;5019051;28;20140;-88
2022/01/04 08:34:50;;;;;;;6.57;2.30;;;8.30;99.90;;;;;;5037549;28;20083;-83
2022/01/04 08:37:17;;;;;;;6.85;3.17;;;8.30;99.90;;;;;;5037739;28;20053;-85
2022/01/04 08:39:43;;;;;;;6.88;2.60;;;8.30;99.90;;;;;;5036401;28;20040;-82
2022/01/04 08:42:09;;;;;;;5.18;2.10;;;8.20;99.90;;;;;;5019446;28;20060;-82
2022/01/04 08:44:39;;;;;;;4.28;1.80;;;8.20;99.90;;;;;;5018448;28;20122;-81
2022/01/04 08:47:10;;;;;;;3.67;1.90;;;8.20;99.90;;;;;;5016212;28;20068;-81
2022/01/04 08:49:37;;;;;;;4.75;1.73;;;8.20;99.90;;;;;;4670024;28;10001688;-81
2022/01/04 08:52:05;;;;;;;3.38;2.78;;;8.10;99.90;;;;;;5017894;28;20084;-79
2022/01/04 08:54:30;;;;;;;5.85;2.17;;;8.10;99.90;;;;;;5016866;28;20067;-81
2022/01/04 08:56:56;;;;;;;5.47;2.55;;;8.10;99.90;;;;;;5016055;28;20626;-81
2022/01/04 08:59:23;;;;;;;3.03;1.92;;;8.20;99.90;;;;;;5016768;28;20049;-81
2022/01/04 09:01:48;;;;;;;7.25;2.30;;;8.10;99.90;;;;;;5036318;28;20055;-82
2022/01/04 09:04:14;;;;;;;6.97;3.50;;;8.10;99.90;;;;;;5017098;28;20820;-82
2022/01/04 09:06:40;;;;;;;5.20;2.92;;;7.90;99.90;;;;;;5017709;28;20056;-83
2022/01/04 09:09:05;;;;;;;8.48;2.72;;;8.10;99.90;;;;;;5038783;28;20756;-82
2022/01/04 09:11:31;;;;;;;4.97;2.47;;;8.10;99.90;;;;;;5018265;28;20053;-82
2022/01/04 09:19:25;;;;;;;2.83;2.58;;;8.10;99.90;;;;;;5040168;28;20052;-81
2022/01/04 09:21:51;;;;;;;7.35;2.50;;;8.10;99.90;;;;;;5018773;28;20057;-81
2022/01/04 09:24:17;;;;;;;5.80;2.60;;;8.10;99.90;;;;;;5016705;28;20041;-81
2022/01/04 09:26:42;;;;;;;10.70;2.92;;;8.10;99.90;;;;;;5034931;28;20186;-79
2022/01/04 09:29:08;;;;;;;6.13;2.58;;;8.10;99.90;;;;;;5016770;28;20048;-80
2022/01/04 09:31:34;;;;;;;6.20;1.73;;;8.10;99.90;;;;;;5015027;28;20044;-80
2022/01/04 09:34:01;;;;;;;4.60;2.05;;;8.10;99.90;;;;;;5034714;28;20123;-80
2022/01/04 09:36:37;;;;;;;4.22;2.75;;;7.90;99.90;;;;;;5012510;28;20065;-80
2022/01/04 09:39:06;;;;;;;2.33;1.20;;;8.10;99.90;;;;;;5033861;28;20868;-80
2022/01/04 09:41:32;;;;;;;3.95;1.55;;;8.00;99.90;;;;;;5032721;28;20084;-81
2022/01/04 09:43:58;;;;;;;3.47;1.48;;;8.00;99.90;;;;;;5036123;28;20048;-81
2022/01/04 09:46:23;;;;;;;2.50;1.50;;;8.10;99.90;;;;;;5034692;28;20432;-80
2022/01/04 09:48:52;;;;;;;3.83;1.95;;;8.10;99.90;;;;;;5034014;28;20587;-79
2022/01/04 09:51:18;;;;;;;3.20;1.42;;;8.10;99.90;;;;;;5017118;28;20049;-79
2022/01/04 09:53:44;;;;;;;8.35;2.15;;;8.10;99.90;;;;;;5016307;28;20107;-79
2022/01/04 09:56:09;;;;;;;2.42;1.17;;;7.40;99.90;;;;;;5016111;28;20053;-78
2022/01/04 09:58:35;;;;;;;2.63;1.40;;;8.10;99.90;;;;;;5017414;28;20099;-78
2022/01/04 10:01:01;;;;;;;2.63;1.20;;;8.10;99.90;;;;;;5034776;28;20041;-78
2022/01/04 10:03:29;;;;;;;4.47;1.33;;;8.00;99.90;;;;;;5015857;28;20450;-79
2022/01/04 10:06:14;;;;;;;1.65;0.90;;;8.00;99.90;;;;;;5016599;28;20416;-78
2022/01/04 10:09:04;;;;;;;1.85;1.33;;;8.00;99.90;;;;;;5037051;28;20160;-78
2022/01/04 10:11:39;;;;;;;5.00;1.50;;;8.50;99.90;;;;;;5035888;28;20052;-71
2022/01/04 10:14:39;;;;;;;3.33;1.50;;;7.90;99.90;;;;;;5015260;28;20422;-72
2022/01/04 10:17:35;;;;;;;1.65;1.48;;;7.90;99.90;;;;;;5017903;28;20115;-72
2022/01/04 10:20:02;;;;;;;3.30;1.38;;;7.80;99.90;;;;;;5022924;28;20060;-77
2022/01/04 10:22:34;;;;;;;2.97;1.38;;;7.80;99.90;;;;;;5035412;28;20053;-77
2022/01/04 10:25:00;;;;;;;2.13;1.25;;;7.80;99.90;;;;;;5014584;28;20295;-77
2022/01/04 10:27:31;;;;;;;3.50;1.70;;;7.80;99.90;;;;;;5034982;28;20603;-77
2022/01/04 10:30:10;;;;;;;3.88;1.08;;;7.70;99.90;;;;;;5017955;28;20061;-76
2022/01/04 10:32:48;;;;;;;3.50;1.15;;;7.60;99.90;;;;;;5017717;28;20056;-76
2022/01/04 10:35:40;;;;;;;3.25;1.88;;;7.60;99.90;;;;;;5036524;28;20574;-77
2022/01/04 10:38:30;;;;;;;3.33;1.20;;;7.40;99.90;;;;;;4999831;28;20838;-76
2022/01/04 10:41:00;;;;;;;3.47;1.70;;;7.30;99.90;;;;;;5007720;28;20062;-76
2022/01/04 10:43:29;;;;;;;2.30;1.00;;;7.10;99.90;;;;;;5015052;28;20124;-78
2022/01/04 10:45:56;;;;;;;2.00;1.00;;;7.10;99.90;;;;;;5010273;28;20595;-76
2022/01/04 10:48:33;;;;;;;1.48;0.98;;;6.90;99.90;;;;;;5017754;28;20057;-75
2022/01/04 10:51:11;;;;;;;1.23;1.00;;;6.80;99.90;;;;;;5017593;28;20570;-75
2022/01/04 10:53:38;;;;;;;1.67;0.50;;;6.70;99.90;;;;;;5017130;28;20077;-77
2022/01/04 10:56:10;;;;;;;2.58;0.95;;;6.70;99.90;;;;;;5016591;28;20763;-76
2022/01/04 10:58:43;;;;;;;2.60;1.50;;;6.70;99.90;;;;;;5016979;28;20053;-76
2022/01/04 11:01:11;;;;;;;2.80;1.20;;;6.70;99.90;;;;;;5017646;28;20049;-76
2022/01/04 11:03:42;;;;;;;1.35;0.90;;;6.60;99.90;;;;;;5016593;28;20041;-77
2022/01/04 11:06:13;;;;;;;2.25;1.10;;;6.50;99.90;;;;;;5017453;28;20159;-75
2022/01/04 11:08:40;;;;;;;1.98;0.95;;;6.50;99.90;;;;;;5016682;28;20484;-76
2022/01/04 11:11:06;;;;;;;1.90;0.90;;;6.50;99.90;;;;;;5018371;28;20056;-77
2022/01/04 11:13:32;;;;;;;2.67;1.08;;;6.60;99.90;;;;;;5016159;28;20053;-76
2022/01/04 11:16:00;;;;;;;3.85;1.10;;;6.70;99.90;;;;;;5018442;28;20218;-76
2022/01/04 11:18:27;;;;;;;3.00;1.85;;;6.80;99.90;;;;;;5020341;28;20061;-74
2022/01/04 11:20:53;;;;;;;3.50;1.33;;;6.80;99.90;;;;;;5032302;28;20049;-76
2022/01/04 11:23:27;;;;;;;2.83;0.70;;;6.80;99.90;;;;;;5019362;28;20061;-77
2022/01/04 11:25:53;;;;;;;1.40;0.90;;;6.90;99.90;;;;;;5020691;28;20053;-76
2022/01/04 11:28:19;;;;;;;3.78;1.15;;;6.90;99.90;;;;;;5011191;28;20043;-76
2022/01/04 11:30:45;;;;;;;1.63;1.08;;;6.90;99.90;;;;;;5016407;28;20490;-76
2022/01/04 11:33:26;;;;;;;1.23;0.70;;;6.90;99.90;;;;;;5015513;28;20132;-77
2022/01/04 11:35:54;;;;;;;2.22;1.33;;;6.90;99.90;;;;;;5011486;28;20053;-76
2022/01/04 11:38:37;;;;;;;1.88;1.10;;;6.80;99.90;;;;;;5015191;28;20048;-76
2022/01/04 11:41:04;;;;;;;1.15;0.70;;;6.80;99.90;;;;;;5013997;28;20612;-75
2022/01/04 11:43:38;;;;;;;5.32;1.23;;;6.80;99.90;;;;;;5015453;28;20165;-75
2022/01/04 11:46:04;;;;;;;0.55;0.55;;;6.60;99.90;;;;;;5017680;28;20611;-75
2022/01/04 11:48:37;;;;;;;1.48;0.57;;;6.60;99.90;;;;;;5016067;28;20049;-77
2022/01/04 11:51:09;;;;;;;0.75;0.40;;;6.40;99.90;;;;;;5016482;28;20111;-77
2022/01/04 11:53:36;;;;;;;0.70;0.65;;;6.20;99.90;;;;;;5018149;28;20045;-76
2022/01/04 11:56:06;;;;;;;2.83;0.75;;;5.90;99.90;;;;;;5014959;28;20045;-82
2022/01/04 11:58:46;;;;;;;6.25;0.98;;;6.00;99.90;;;;;;5019607;28;20567;-79
2022/01/04 12:01:16;;;;;;;2.75;0.60;;;5.90;99.90;;;;;;5015245;28;20235;-78
2022/01/04 12:03:49;;;;;;;2.42;0.80;;;6.00;99.90;;;;;;5015407;28;20057;-78
2022/01/04 12:06:17;;;;;;;1.15;0.70;;;6.10;99.90;;;;;;5016937;28;20049;-78
2022/01/04 12:08:48;;;;;;;3.60;0.98;;;6.10;99.90;;;;;;5016553;28;20056;-78
2022/01/04 12:11:21;;;;;;;2.38;1.02;;;6.10;99.90;;;;;;5018509;28;20115;-79
2022/01/04 12:13:51;;;;;;;1.10;0.90;;;6.20;99.90;;;;;;5012444;28;20088;-78
2022/01/04 12:16:32;;;;;;;3.55;0.95;;;6.30;99.90;;;;;;5014194;28;20053;-78
2022/01/04 12:18:58;;;;;;;3.83;1.40;;;6.30;99.90;;;;;;5014287;28;20057;-78
2022/01/04 12:22:01;;;;;;;1.23;0.90;;;6.40;99.90;;;;;;5015470;28;20049;-78
2022/01/04 12:24:42;;;;;;;1.65;1.02;;;6.60;99.90;;;;;;5015041;28;20538;-78
2022/01/04 12:27:09;;;;;;;0.82;0.57;;;6.60;99.90;;;;;;5016652;28;20075;-78
2022/01/04 12:29:35;;;;;;;3.08;1.38;;;6.80;99.90;;;;;;5017911;28;20625;-78
2022/01/04 12:32:04;;;;;;;3.08;0.82;;;6.80;99.90;;;;;;5015793;28;20045;-77
2022/01/04 12:34:33;;;;;;;1.30;1.05;;;6.80;99.90;;;;;;5014327;28;20046;-77
2022/01/04 12:37:01;;;;;;;3.03;1.50;;;6.90;99.90;;;;;;5013335;28;20060;-77
2022/01/04 12:39:33;;;;;;;1.92;0.90;;;7.00;99.90;;;;;;5012902;28;20040;-77
2022/01/04 12:41:58;;;;;;;3.42;0.80;;;7.00;99.90;;;;;;5028446;28;20060;-70
2022/01/04 12:44:26;;;;;;;5.80;1.38;;;7.00;99.90;;;;;;5014575;28;20037;-77
2022/01/04 12:46:52;;;;;;;1.20;1.00;;;7.00;99.90;;;;;;5014906;28;20045;-76
2022/01/04 12:49:20;;;;;;;2.05;1.35;;;7.00;99.90;;;;;;5012973;28;21062;-76
2022/01/04 12:51:47;;;;;;;5.07;2.40;;;7.00;99.90;;;;;;5012919;28;20148;-78
2022/01/04 12:54:43;;;;;;;1.60;0.88;;;7.10;99.90;;;;;;5031006;28;20134;-77
2022/01/04 12:57:17;;;;;;;2.25;1.30;;;7.10;99.90;;;;;;4996528;28;20098;-78
2022/01/04 12:59:51;;;;;;;2.80;0.90;;;7.10;99.90;;;;;;5030677;28;20049;-75
2022/01/04 13:02:24;;;;;;;1.73;1.30;;;7.00;99.90;;;;;;5015218;28;20556;-76